createdAt,value
2022-08-23T00:00:32.246Z,100982.22
2022-08-23T00:02:10.126Z,100991.28
2022-08-23T00:03:56.020Z,100984.06
2022-08-23T00:05:27.515Z,100981.38
2022-08-23T00:06:59.393Z,100983.34
2022-08-23T00:08:32.001Z,100979.69
2022-08-23T00:10:05.275Z,100977.00
2022-08-23T00:11:38.447Z,100977.13
2022-08-23T00:13:10.326Z,100978.25
2022-08-23T00:14:45.420Z,100982.75
2022-08-23T00:16:16.950Z,100974.56
2022-08-23T00:17:48.861Z,100963.09
2022-08-23T00:19:21.545Z,100968.63
2022-08-23T00:20:53.052Z,100968.88
2022-08-23T00:22:24.515Z,100962.97
2022-08-23T00:23:56.210Z,100965.91
2022-08-23T00:25:29.088Z,100963.50
2022-08-23T00:27:01.817Z,100962.63
2022-08-23T00:28:33.373Z,100962.06
2022-08-23T00:30:05.859Z,100960.34
2022-08-23T00:31:37.347Z,100954.41
2022-08-23T00:33:10.053Z,100950.88
2022-08-23T00:34:41.637Z,100960.66
2022-08-23T00:36:13.167Z,100958.94
2022-08-23T00:37:44.704Z,100958.09
2022-08-23T00:39:23.626Z,100956.38
2022-08-23T00:40:56.849Z,100956.53
2022-08-23T00:42:48.778Z,100960.31
2022-08-23T00:44:46.417Z,100957.78
2022-08-23T00:46:45.543Z,100959.59
2022-08-23T00:48:17.550Z,100961.13
2022-08-23T00:49:52.642Z,100954.47
2022-08-23T00:51:28.870Z,100959.97
2022-08-23T00:53:03.425Z,100959.78
2022-08-23T00:54:36.731Z,100959.47
2022-08-23T00:56:10.850Z,100958.97
2022-08-23T00:57:42.388Z,100962.91
2022-08-23T00:59:18.545Z,100958.28
2022-08-23T01:00:51.653Z,100958.13
2022-08-23T01:02:23.253Z,100958.28
2022-08-23T01:04:04.342Z,100968.28
2022-08-23T01:05:40.783Z,100971.09
2022-08-23T01:07:15.637Z,100972.22
2022-08-23T01:08:49.689Z,100975.88
2022-08-23T01:10:22.999Z,100973.31
2022-08-23T01:11:59.966Z,100968.94
2022-08-23T01:13:35.985Z,100976.13
2022-08-23T01:15:11.455Z,100971.88
2022-08-23T01:16:45.525Z,100973.88
2022-08-23T01:18:19.796Z,100970.84
2022-08-23T01:19:53.947Z,100974.09
2022-08-23T01:21:29.602Z,100975.50
2022-08-23T01:23:06.060Z,100978.97
2022-08-23T01:25:06.496Z,100978.13
2022-08-23T01:26:35.054Z,100984.94
2022-08-23T01:28:06.661Z,100990.88
2022-08-23T01:29:38.581Z,100989.53
2022-08-23T01:31:10.669Z,100990.13
2022-08-23T01:32:44.523Z,100989.53
2022-08-23T01:34:18.052Z,100990.75
2022-08-23T01:35:51.392Z,100987.94
2022-08-23T01:37:23.164Z,100986.84
2022-08-23T01:38:56.034Z,100992.09
2022-08-23T01:40:29.376Z,100991.22
2022-08-23T01:42:01.427Z,100985.13
2022-08-23T01:43:40.236Z,100987.81
2022-08-23T01:45:13.620Z,100991.34
2022-08-23T01:46:45.976Z,100992.22
2022-08-23T01:48:18.503Z,100993.19
2022-08-23T01:49:50.038Z,100999.06
2022-08-23T01:51:22.478Z,100990.44
2022-08-23T01:52:54.302Z,100989.56
2022-08-23T01:54:26.992Z,101000.31
2022-08-23T01:56:01.730Z,100991.53
2022-08-23T01:57:35.925Z,100990.28
2022-08-23T01:59:10.535Z,100991.91
2022-08-23T02:00:47.780Z,100994.09
2022-08-23T02:02:19.744Z,100992.16
2022-08-23T02:04:02.550Z,100993.75
2022-08-23T02:05:37.274Z,100990.81
2022-08-23T02:07:08.886Z,100994.47
2022-08-23T02:08:59.076Z,100995.31
2022-08-23T02:10:30.758Z,101005.81
2022-08-23T02:12:03.946Z,100996.91
2022-08-23T02:13:37.203Z,100999.81
2022-08-23T02:15:09.192Z,101001.78
2022-08-23T02:16:58.103Z,100998.25
2022-08-23T02:18:35.700Z,100997.75
2022-08-23T02:20:08.834Z,100998.78
2022-08-23T02:21:40.976Z,101006.09
2022-08-23T02:23:16.432Z,101004.50
2022-08-23T02:24:48.336Z,101003.66
2022-08-23T02:26:20.239Z,101009.25
2022-08-23T02:28:04.433Z,100997.69
2022-08-23T02:29:39.278Z,101000.34
2022-08-23T02:31:12.933Z,101000.22
2022-08-23T02:32:45.623Z,100996.69
2022-08-23T02:34:20.302Z,101000.34
2022-08-23T02:35:51.965Z,101002.19
2022-08-23T02:37:24.414Z,101007.41
2022-08-23T02:38:56.230Z,101007.41
2022-08-23T02:40:28.356Z,101008.63
2022-08-23T02:42:00.936Z,101010.38
2022-08-23T02:43:40.966Z,101010.38
2022-08-23T02:45:13.074Z,101006.72
2022-08-23T02:46:49.880Z,101014.75
2022-08-23T02:48:21.704Z,101011.34
2022-08-23T02:50:04.402Z,101013.16
2022-08-23T02:51:36.126Z,101011.59
2022-08-23T02:53:08.435Z,101016.34
2022-08-23T02:54:40.229Z,101022.53
2022-08-23T02:56:21.465Z,101020.72
2022-08-23T02:57:53.917Z,101022.53
2022-08-23T02:59:27.032Z,101014.66
2022-08-23T03:00:58.625Z,101017.34
2022-08-23T03:02:30.316Z,101021.00
2022-08-23T03:04:02.461Z,101022.94
2022-08-23T03:05:34.972Z,101022.19
2022-08-23T03:07:07.662Z,101015.25
2022-08-23T03:08:40.846Z,101020.13
2022-08-23T03:10:13.011Z,101014.91
2022-08-23T03:11:50.824Z,101012.47
2022-08-23T03:13:24.359Z,101017.22
2022-08-23T03:14:57.841Z,101024.50
2022-08-23T03:16:29.752Z,101020.22
2022-08-23T03:18:01.680Z,101019.25
2022-08-23T03:19:33.381Z,101017.41
2022-08-23T03:21:06.821Z,101024.72
2022-08-23T03:22:38.586Z,101029.34
2022-08-23T03:24:11.107Z,101021.56
2022-08-23T03:25:43.739Z,101029.84
2022-08-23T03:27:27.971Z,101033.59
2022-08-23T03:28:59.552Z,101032.13
2022-08-23T03:30:36.944Z,101035.78
2022-08-23T03:32:09.353Z,101036.91
2022-08-23T03:33:42.933Z,101031.53
2022-08-23T03:35:15.321Z,101033.50
2022-08-23T03:36:47.359Z,101030.06
2022-08-23T03:38:19.847Z,101023.97
2022-08-23T03:39:52.800Z,101027.63
2022-08-23T03:41:25.143Z,101030.44
2022-08-23T03:42:56.787Z,101033.09
2022-08-23T03:44:30.211Z,101034.91
2022-08-23T03:46:03.180Z,101035.03
2022-08-23T03:47:35.353Z,101035.41
2022-08-23T03:49:06.893Z,101031.97
2022-08-23T03:50:48.149Z,101047.03
2022-08-23T03:52:19.626Z,101042.38
2022-08-23T03:53:51.267Z,101045.28
2022-08-23T03:55:22.820Z,101049.66
2022-08-23T03:56:56.155Z,101041.88
2022-08-23T03:58:29.593Z,101041.88
2022-08-23T04:00:01.373Z,101052.56
2022-08-23T04:01:36.524Z,101045.28
2022-08-23T04:03:08.532Z,101052.13
2022-08-23T04:04:56.731Z,101054.31
2022-08-23T04:07:00.961Z,101066.72
2022-08-23T04:08:33.450Z,101063.06
2022-08-23T04:10:07.844Z,101065.63
2022-08-23T04:11:42.151Z,101072.69
2022-08-23T04:13:13.747Z,101070.13
2022-08-23T04:14:45.971Z,101069.28
2022-08-23T04:16:19.865Z,101080.84
2022-08-23T04:17:52.770Z,101077.31
2022-08-23T04:19:24.534Z,101071.22
2022-08-23T04:21:10.503Z,101074.50
2022-08-23T04:22:42.249Z,101076.41
2022-08-23T04:24:17.248Z,101078.34
2022-08-23T04:25:48.900Z,101082.22
2022-08-23T04:27:22.122Z,101082.44
2022-08-23T04:28:53.690Z,101077.75
2022-08-23T04:30:25.261Z,101084.41
2022-08-23T04:31:57.309Z,101094.03
2022-08-23T04:33:35.502Z,101090.91
2022-08-23T04:35:11.883Z,101090.97
2022-08-23T04:36:51.718Z,101097.59
2022-08-23T04:38:27.003Z,101084.47
2022-08-23T04:40:20.095Z,101101.06
2022-08-23T04:42:14.640Z,101102.22
2022-08-23T04:43:46.736Z,101096.88
2022-08-23T04:45:18.999Z,101100.19
2022-08-23T04:46:56.711Z,101103.00
2022-08-23T04:48:31.134Z,101102.59
2022-08-23T04:50:02.964Z,101107.59
2022-08-23T04:51:36.113Z,101111.84
2022-08-23T04:53:07.764Z,101103.84
2022-08-23T04:54:45.002Z,101109.13
2022-08-23T04:56:29.486Z,101110.72
2022-08-23T04:58:01.475Z,101099.53
2022-08-23T04:59:37.606Z,101108.03
2022-08-23T05:01:10.165Z,101105.84
2022-08-23T05:02:41.897Z,101114.22
2022-08-23T05:04:16.781Z,101105.09
2022-08-23T05:05:48.363Z,101102.81
2022-08-23T05:07:21.699Z,101104.50
2022-08-23T05:09:17.144Z,101116.81
2022-08-23T05:10:51.936Z,101118.75
2022-08-23T05:12:23.468Z,101120.34
2022-08-23T05:13:55.331Z,101117.78
2022-08-23T05:15:27.751Z,101122.50
2022-08-23T05:17:08.189Z,101119.47
2022-08-23T05:18:42.120Z,101117.66
2022-08-23T05:20:15.776Z,101119.38
2022-08-23T05:21:47.401Z,101120.09
2022-08-23T05:23:19.973Z,101122.13
2022-08-23T05:25:00.132Z,101119.69
2022-08-23T05:26:32.196Z,101123.22
2022-08-23T05:28:03.977Z,101125.78
2022-08-23T05:29:35.528Z,101130.09
2022-08-23T05:31:11.611Z,101136.69
2022-08-23T05:33:03.750Z,101127.75
2022-08-23T05:34:38.430Z,101142.97
2022-08-23T05:36:17.297Z,101138.53
2022-08-23T05:37:48.933Z,101141.94
2022-08-23T05:39:33.688Z,101145.47
2022-08-23T05:41:10.018Z,101136.44
2022-08-23T05:42:42.416Z,101149.13
2022-08-23T05:44:14.366Z,101138.94
2022-08-23T05:45:48.385Z,101140.16
2022-08-23T05:47:24.855Z,101144.28
2022-08-23T05:49:26.446Z,101142.06
2022-08-23T05:50:58.240Z,101144.00
2022-08-23T05:52:31.118Z,101152.25
2022-08-23T05:54:04.176Z,101143.72
2022-08-23T05:55:35.997Z,101146.16
2022-08-23T05:57:21.263Z,101148.94
2022-08-23T05:58:59.159Z,101150.25
2022-08-23T06:00:38.045Z,101160.47
2022-08-23T06:02:12.844Z,101159.84
2022-08-23T06:03:44.674Z,101166.25
2022-08-23T06:05:16.663Z,101161.09
2022-08-23T06:06:49.883Z,101163.38
2022-08-23T06:08:23.064Z,101167.63
2022-08-23T06:09:55.438Z,101169.34
2022-08-23T06:11:28.250Z,101164.81
2022-08-23T06:13:03.339Z,101165.66
2022-08-23T06:14:35.081Z,101163.97
2022-08-23T06:16:15.088Z,101160.75
2022-08-23T06:17:47.972Z,101162.91
2022-08-23T06:19:19.864Z,101166.31
2022-08-23T06:20:58.933Z,101164.34
2022-08-23T06:22:43.287Z,101166.19
2022-08-23T06:24:16.257Z,101167.63
2022-08-23T06:26:11.415Z,101172.63
2022-08-23T06:27:42.931Z,101170.53
2022-08-23T06:29:16.068Z,101171.25
2022-08-23T06:30:49.545Z,101170.28
2022-08-23T06:32:35.087Z,101171.63
2022-08-23T06:34:34.140Z,101167.97
2022-08-23T06:36:25.924Z,101179.44
2022-08-23T06:38:18.078Z,101177.47
2022-08-23T06:39:58.025Z,101182.00
2022-08-23T06:41:50.512Z,101183.72
2022-08-23T06:43:33.555Z,101192.22
2022-08-23T06:45:33.842Z,101189.00
2022-08-23T06:47:07.632Z,101194.50
2022-08-23T06:48:42.364Z,101189.84
2022-08-23T06:50:13.890Z,101190.44
2022-08-23T06:52:18.128Z,101193.16
2022-08-23T06:54:03.841Z,101192.50
2022-08-23T06:55:59.450Z,101190.38
2022-08-23T06:57:51.305Z,101187.56
2022-08-23T06:59:46.008Z,101187.03
2022-08-23T07:01:45.068Z,101185.66
2022-08-23T07:03:24.321Z,101183.25
2022-08-23T07:05:31.432Z,101185.31
2022-08-23T07:07:25.465Z,101194.91
2022-08-23T07:09:14.105Z,101189.97
2022-08-23T07:10:45.624Z,101190.44
2022-08-23T07:12:20.243Z,101195.13
2022-08-23T07:13:55.905Z,101182.97
2022-08-23T07:15:27.407Z,101193.84
2022-08-23T07:16:59.911Z,101189.72
2022-08-23T07:18:32.064Z,101197.66
2022-08-23T07:20:04.441Z,101194.84
2022-08-23T07:21:38.228Z,101196.69
2022-08-23T07:23:10.156Z,101197.41
2022-08-23T07:24:42.935Z,101193.91
2022-08-23T07:26:16.168Z,101194.88
2022-08-23T07:27:49.326Z,101195.63
2022-08-23T07:29:24.128Z,101197.19
2022-08-23T07:31:05.685Z,101188.69
2022-08-23T07:32:46.505Z,101193.94
2022-08-23T07:34:26.459Z,101190.66
2022-08-23T07:35:58.027Z,101196.34
2022-08-23T07:37:30.831Z,101200.94
2022-08-23T07:39:04.916Z,101197.91
2022-08-23T07:40:39.136Z,101200.56
2022-08-23T07:42:22.795Z,101200.22
2022-08-23T07:43:58.293Z,101206.13
2022-08-23T07:45:29.900Z,101199.78
2022-08-23T07:47:04.725Z,101204.75
2022-08-23T07:48:53.375Z,101202.66
2022-08-23T07:50:30.405Z,101211.34
2022-08-23T07:52:04.488Z,101205.91
2022-08-23T07:53:38.094Z,101213.75
2022-08-23T07:55:11.084Z,101213.94
2022-08-23T07:57:01.262Z,101213.09
2022-08-23T07:58:51.650Z,101203.16
2022-08-23T08:00:47.611Z,101209.25
2022-08-23T08:02:38.085Z,101211.25
2022-08-23T08:04:12.544Z,101212.94
2022-08-23T08:05:46.132Z,101215.03
2022-08-23T08:07:20.355Z,101207.66
2022-08-23T08:08:57.901Z,101208.50
2022-08-23T08:10:29.528Z,101208.34
2022-08-23T08:12:01.810Z,101202.66
2022-08-23T08:13:37.916Z,101211.50
2022-08-23T08:15:10.314Z,101211.22
2022-08-23T08:16:47.604Z,101207.34
2022-08-23T08:18:25.311Z,101219.53
2022-08-23T08:20:17.171Z,101213.00
2022-08-23T08:21:48.799Z,101210.16
2022-08-23T08:23:52.715Z,101217.56
2022-08-23T08:25:58.833Z,101218.97
2022-08-23T08:27:32.361Z,101216.13
2022-08-23T08:29:07.051Z,101217.81
2022-08-23T08:30:39.384Z,101216.63
2022-08-23T08:32:13.903Z,101213.66
2022-08-23T08:33:46.090Z,101215.34
2022-08-23T08:35:19.499Z,101210.66
2022-08-23T08:36:53.656Z,101214.75
2022-08-23T08:38:30.582Z,101214.28
2022-08-23T08:40:03.559Z,101212.56
2022-08-23T08:41:46.006Z,101211.44
2022-08-23T08:43:29.151Z,101213.00
2022-08-23T08:45:04.049Z,101217.78
2022-08-23T08:46:42.796Z,101220.34
2022-08-23T08:48:20.821Z,101216.66
2022-08-23T08:50:09.690Z,101214.47
2022-08-23T08:51:45.318Z,101218.56
2022-08-23T08:53:19.400Z,101216.16
2022-08-23T08:55:19.114Z,101221.06
2022-08-23T08:56:53.623Z,101214.22
2022-08-23T08:58:33.100Z,101222.31
2022-08-23T09:00:05.400Z,101217.94
2022-08-23T09:01:40.320Z,101232.84
2022-08-23T09:03:20.409Z,101232.69
2022-08-23T09:04:54.179Z,101224.88
2022-08-23T09:06:28.574Z,101222.47
2022-08-23T09:08:09.775Z,101227.88
2022-08-23T09:09:52.279Z,101228.59
2022-08-23T09:11:31.704Z,101227.28
2022-08-23T09:13:11.445Z,101223.25
2022-08-23T09:14:53.418Z,101214.00
2022-08-23T09:16:32.563Z,101212.53
2022-08-23T09:18:08.130Z,101217.78
2022-08-23T09:19:40.200Z,101217.78
2022-08-23T09:21:14.581Z,101223.34
2022-08-23T09:22:48.508Z,101217.69
2022-08-23T09:24:30.022Z,101218.84
2022-08-23T09:26:16.614Z,101225.25
2022-08-23T09:27:48.309Z,101224.41
2022-08-23T09:29:22.553Z,101221.53
2022-08-23T09:30:55.211Z,101214.84
2022-08-23T09:32:30.843Z,101219.31
2022-08-23T09:34:02.545Z,101216.00
2022-08-23T09:36:03.260Z,101226.50
2022-08-23T09:37:48.493Z,101223.50
2022-08-23T09:39:24.383Z,101218.44
2022-08-23T09:41:17.949Z,101218.84
2022-08-23T09:43:03.548Z,101218.91
2022-08-23T09:44:36.945Z,101214.91
2022-08-23T09:46:09.190Z,101210.88
2022-08-23T09:47:44.423Z,101211.44
2022-08-23T09:49:22.124Z,101216.69
2022-08-23T09:50:54.768Z,101215.28
2022-08-23T09:52:32.511Z,101215.59
2022-08-23T09:54:10.915Z,101212.91
2022-08-23T09:55:43.547Z,101211.19
2022-08-23T09:57:23.140Z,101205.78
2022-08-23T09:58:55.598Z,101208.34
2022-08-23T10:00:41.937Z,101213.44
2022-08-23T10:02:16.064Z,101205.63
2022-08-23T10:04:05.574Z,101200.38
2022-08-23T10:05:38.204Z,101211.50
2022-08-23T10:07:25.290Z,101209.50
2022-08-23T10:09:04.408Z,101207.03
2022-08-23T10:10:43.733Z,101203.16
2022-08-23T10:12:21.241Z,101205.00
2022-08-23T10:13:54.097Z,101208.88
2022-08-23T10:15:36.306Z,101197.06
2022-08-23T10:17:14.849Z,101200.28
2022-08-23T10:18:51.570Z,101207.91
2022-08-23T10:20:31.578Z,101196.91
2022-08-23T10:22:12.831Z,101202.13
2022-08-23T10:23:54.683Z,101201.66
2022-08-23T10:25:33.212Z,101199.50
2022-08-23T10:27:33.663Z,101195.47
2022-08-23T10:29:27.543Z,101192.44
2022-08-23T10:31:02.504Z,101200.03
2022-08-23T10:32:44.693Z,101192.00
2022-08-23T10:34:21.840Z,101198.16
2022-08-23T10:36:00.670Z,101196.97
2022-08-23T10:37:41.276Z,101198.91
2022-08-23T10:39:16.115Z,101187.72
2022-08-23T10:40:54.656Z,101198.06
2022-08-23T10:42:34.343Z,101197.66
2022-08-23T10:44:22.036Z,101195.81
2022-08-23T10:46:00.236Z,101192.66
2022-08-23T10:47:39.053Z,101189.66
2022-08-23T10:49:15.397Z,101194.66
2022-08-23T10:50:55.432Z,101192.84
2022-08-23T10:52:30.365Z,101184.97
2022-08-23T10:54:06.074Z,101184.16
2022-08-23T10:56:00.326Z,101188.94
2022-08-23T10:57:35.459Z,101180.34
2022-08-23T10:59:09.086Z,101188.81
2022-08-23T11:00:41.368Z,101182.94
2022-08-23T11:02:19.644Z,101175.13
2022-08-23T11:04:01.077Z,101182.06
2022-08-23T11:05:37.920Z,101173.66
2022-08-23T11:07:20.460Z,101188.19
2022-08-23T11:09:00.221Z,101176.03
2022-08-23T11:10:56.519Z,101176.41
2022-08-23T11:12:49.448Z,101181.50
2022-08-23T11:14:26.445Z,101186.59
2022-08-23T11:16:00.855Z,101186.44
2022-08-23T11:17:38.366Z,101182.88
2022-08-23T11:19:14.108Z,101181.50
2022-08-23T11:21:01.095Z,101177.31
2022-08-23T11:22:52.198Z,101183.56
2022-08-23T11:24:42.439Z,101168.50
2022-08-23T11:26:36.264Z,101171.38
2022-08-23T11:28:26.301Z,101175.41
2022-08-23T11:30:21.342Z,101175.09
2022-08-23T11:32:13.406Z,101175.94
2022-08-23T11:33:46.604Z,101165.31
2022-08-23T11:35:37.891Z,101159.56
2022-08-23T11:37:27.102Z,101171.38
2022-08-23T11:39:05.830Z,101169.69
2022-08-23T11:40:43.293Z,101166.97
2022-08-23T11:42:19.145Z,101168.38
2022-08-23T11:44:18.603Z,101167.34
2022-08-23T11:45:50.309Z,101169.06
2022-08-23T11:47:28.636Z,101169.38
2022-08-23T11:49:27.344Z,101172.91
2022-08-23T11:51:07.315Z,101172.69
2022-08-23T11:52:53.670Z,101174.81
2022-08-23T11:54:36.059Z,101163.34
2022-08-23T11:56:13.811Z,101169.13
2022-08-23T11:57:53.044Z,101165.59
2022-08-23T11:59:43.257Z,101171.00
2022-08-23T12:01:15.187Z,101159.53
2022-08-23T12:03:02.032Z,101161.22
2022-08-23T12:04:36.446Z,101166.66
2022-08-23T12:06:13.075Z,101159.53
2022-08-23T12:07:45.952Z,101148.53
2022-08-23T12:09:36.885Z,101152.09
2022-08-23T12:11:10.095Z,101160.06
2022-08-23T12:12:47.036Z,101157.19
2022-08-23T12:14:32.967Z,101147.56
2022-08-23T12:16:06.047Z,101156.84
2022-08-23T12:17:56.585Z,101147.56
2022-08-23T12:19:36.928Z,101155.69
2022-08-23T12:21:17.387Z,101148.03
2022-08-23T12:22:56.501Z,101152.44
2022-08-23T12:24:30.680Z,101150.78
2022-08-23T12:26:07.291Z,101159.94
2022-08-23T12:27:42.014Z,101147.44
2022-08-23T12:29:20.067Z,101146.59
2022-08-23T12:30:57.420Z,101148.63
2022-08-23T12:32:35.115Z,101143.72
2022-08-23T12:34:12.358Z,101149.16
2022-08-23T12:35:50.536Z,101152.75
2022-08-23T12:37:26.316Z,101147.88
2022-08-23T12:39:02.163Z,101151.28
2022-08-23T12:40:35.179Z,101156.03
2022-08-23T12:42:11.385Z,101152.16
2022-08-23T12:43:53.255Z,101149.28
2022-08-23T12:45:25.054Z,101153.66
2022-08-23T12:46:56.986Z,101148.41
2022-08-23T12:48:29.987Z,101149.97
2022-08-23T12:50:03.735Z,101153.31
2022-08-23T12:51:41.717Z,101151.25
2022-08-23T12:53:14.699Z,101152.41
2022-08-23T12:54:49.935Z,101148.06
2022-08-23T12:56:31.415Z,101144.44
2022-08-23T12:58:04.388Z,101145.53
2022-08-23T12:59:38.063Z,101142.41
2022-08-23T13:01:17.962Z,101140.59
2022-08-23T13:02:55.005Z,101148.69
2022-08-23T13:04:26.731Z,101145.63
2022-08-23T13:06:03.569Z,101154.41
2022-08-23T13:07:37.674Z,101154.16
2022-08-23T13:09:12.277Z,101151.59
2022-08-23T13:10:44.795Z,101151.13
2022-08-23T13:12:17.384Z,101158.44
2022-08-23T13:13:49.186Z,101152.03
2022-08-23T13:15:39.668Z,101149.00
2022-08-23T13:17:19.560Z,101161.66
2022-08-23T13:18:51.066Z,101160.47
2022-08-23T13:20:23.917Z,101163.19
2022-08-23T13:22:11.241Z,101148.22
2022-08-23T13:23:47.930Z,101156.50
2022-08-23T13:25:29.317Z,101155.53
2022-08-23T13:27:17.448Z,101154.47
2022-08-23T13:28:59.907Z,101151.66
2022-08-23T13:30:32.843Z,101152.88
2022-08-23T13:32:05.901Z,101151.28
2022-08-23T13:33:41.189Z,101153.44
2022-08-23T13:35:23.796Z,101141.59
2022-08-23T13:36:57.281Z,101147.69
2022-08-23T13:38:31.173Z,101147.31
2022-08-23T13:40:11.590Z,101146.09
2022-08-23T13:41:43.517Z,101149.38
2022-08-23T13:43:19.377Z,101142.94
2022-08-23T13:44:50.867Z,101143.69
2022-08-23T13:46:23.778Z,101145.00
2022-08-23T13:47:58.030Z,101145.16
2022-08-23T13:49:29.786Z,101143.06
2022-08-23T13:51:17.805Z,101144.69
2022-08-23T13:53:13.531Z,101147.56
2022-08-23T13:54:40.926Z,101147.06
2022-08-23T13:56:14.305Z,101153.13
2022-08-23T13:57:45.952Z,101155.63
2022-08-23T13:59:31.312Z,101148.09
2022-08-23T14:01:17.147Z,101145.81
2022-08-23T14:02:49.147Z,101141.13
2022-08-23T14:04:20.691Z,101139.81
2022-08-23T14:05:52.911Z,101138.22
2022-08-23T14:07:24.425Z,101148.38
2022-08-23T14:08:55.918Z,101136.66
2022-08-23T14:10:28.012Z,101145.31
2022-08-23T14:12:04.020Z,101141.38
2022-08-23T14:13:36.746Z,101133.75
2022-08-23T14:15:08.709Z,101146.38
2022-08-23T14:16:40.878Z,101145.66
2022-08-23T14:18:12.468Z,101132.75
2022-08-23T14:21:38.362Z,101134.03
2022-08-23T14:23:12.382Z,101139.50
2022-08-23T14:24:45.423Z,101136.25
2022-08-23T14:26:18.445Z,101133.97
2022-08-23T14:27:51.349Z,101149.75
2022-08-23T14:29:24.225Z,101145.91
2022-08-23T14:30:55.958Z,101151.06
2022-08-23T14:32:27.518Z,101148.19
2022-08-23T14:34:02.052Z,101143.06
2022-08-23T14:35:33.828Z,101141.47
2022-08-23T14:38:01.994Z,101144.13
2022-08-23T14:38:57.495Z,101145.84
2022-08-23T14:40:29.174Z,101149.03
2022-08-23T14:42:00.754Z,101146.31
2022-08-23T14:43:33.698Z,101148.03
2022-08-23T14:45:06.276Z,101146.94
2022-08-23T14:46:40.806Z,101140.38
2022-08-23T14:48:12.358Z,101149.25
2022-08-23T14:49:44.015Z,101146.84
2022-08-23T14:51:22.017Z,101140.94
2022-08-23T14:52:53.665Z,101150.63
2022-08-23T14:54:25.921Z,101151.84
2022-08-23T14:56:18.666Z,101144.06
2022-08-23T14:57:51.570Z,101148.44
2022-08-23T14:59:24.822Z,101149.88
2022-08-23T15:00:57.354Z,101140.06
2022-08-23T15:02:29.646Z,101143.91
2022-08-23T15:04:01.579Z,101140.63
2022-08-23T15:05:33.702Z,101142.31
2022-08-23T15:07:21.010Z,101136.47
2022-08-23T15:08:52.727Z,101144.19
2022-08-23T15:14:08.084Z,101145.88
2022-08-23T15:15:41.038Z,101149.09
2022-08-23T15:17:13.706Z,101137.38
2022-08-23T15:18:47.268Z,101140.28
2022-08-23T15:20:19.446Z,101141.94
2022-08-23T15:21:50.960Z,101130.97
2022-08-23T15:23:22.478Z,101142.09
2022-08-23T15:24:54.059Z,101141.59
2022-08-23T15:26:28.745Z,101141.47
2022-08-23T15:28:01.915Z,101133.13
2022-08-23T15:29:33.420Z,101133.28
2022-08-23T15:31:06.482Z,101142.97
2022-08-23T15:32:38.060Z,101140.38
2022-08-23T15:34:12.743Z,101136.16
2022-08-23T15:35:45.788Z,101128.56
2022-08-23T15:37:18.037Z,101132.19
2022-08-23T15:38:50.409Z,101131.53
2022-08-23T15:40:22.975Z,101132.22
2022-08-23T15:41:54.756Z,101132.16
2022-08-23T15:43:33.879Z,101122.41
2022-08-23T15:45:06.785Z,101129.75
2022-08-23T15:46:39.739Z,101130.47
2022-08-23T15:48:15.579Z,101127.47
2022-08-23T15:49:47.185Z,101128.94
2022-08-23T15:51:19.122Z,101127.63
2022-08-23T15:52:50.972Z,101129.50
2022-08-23T15:54:22.508Z,101130.09
2022-08-23T15:55:54.110Z,101137.34
2022-08-23T15:57:28.050Z,101140.69
2022-08-23T15:59:00.147Z,101125.28
2022-08-23T16:00:31.905Z,101126.91
2022-08-23T16:02:05.453Z,101125.69
2022-08-23T16:03:38.112Z,101121.59
2022-08-23T16:05:10.681Z,101116.69
2022-08-23T16:06:42.484Z,101121.25
2022-08-23T16:08:18.171Z,101125.09
2022-08-23T16:09:49.759Z,101130.16
2022-08-23T16:11:22.019Z,101128.81
2022-08-23T16:12:53.583Z,101126.09
2022-08-23T16:14:26.063Z,101126.34
2022-08-23T16:15:57.719Z,101132.78
2022-08-23T16:17:30.780Z,101122.16
2022-08-23T16:19:02.401Z,101127.13
2022-08-23T16:20:33.886Z,101130.91
2022-08-23T16:22:05.439Z,101130.28
2022-08-23T16:23:39.783Z,101126.81
2022-08-23T16:25:11.557Z,101125.59
2022-08-23T16:26:45.379Z,101126.03
2022-08-23T16:28:17.125Z,101128.41
2022-08-23T16:29:49.013Z,101124.09
2022-08-23T16:31:20.851Z,101123.13
2022-08-23T16:33:10.451Z,101128.16
2022-08-23T16:34:42.009Z,101125.88
2022-08-23T16:36:15.760Z,101125.22
2022-08-23T16:37:48.085Z,101118.94
2022-08-23T16:39:19.695Z,101129.63
2022-08-23T16:40:51.193Z,101120.44
2022-08-23T16:42:22.725Z,101126.91
2022-08-23T16:43:54.255Z,101127.09
2022-08-23T16:45:26.485Z,101126.94
2022-08-23T16:46:58.387Z,101118.66
2022-08-23T16:48:31.363Z,101123.97
2022-08-23T16:50:03.367Z,101121.63
2022-08-23T16:51:35.002Z,101128.03
2022-08-23T16:53:07.452Z,101127.88
2022-08-23T16:54:39.155Z,101123.31
2022-08-23T16:56:11.380Z,101125.53
2022-08-23T16:57:42.924Z,101128.97
2022-08-23T16:59:14.536Z,101131.38
2022-08-23T17:00:46.117Z,101124.56
2022-08-23T17:02:25.474Z,101126.59
2022-08-23T17:03:58.367Z,101127.00
2022-08-23T17:05:29.996Z,101124.78
2022-08-23T17:07:01.619Z,101130.22
2022-08-23T17:08:33.167Z,101129.03
2022-08-23T17:10:05.267Z,101129.03
2022-08-23T17:11:37.362Z,101129.03
2022-08-23T17:13:10.804Z,101127.84
2022-08-23T17:14:42.453Z,101131.78
2022-08-23T17:16:14.128Z,101125.66
2022-08-23T17:17:45.758Z,101127.41
2022-08-23T17:19:18.717Z,101129.94
2022-08-23T17:20:50.339Z,101130.47
2022-08-23T17:22:21.889Z,101135.91
2022-08-23T17:23:54.060Z,101128.28
2022-08-23T17:25:26.903Z,101135.78
2022-08-23T17:26:59.120Z,101129.00
2022-08-23T17:28:31.738Z,101127.81
2022-08-23T17:30:04.380Z,101134.81
2022-08-23T17:31:36.052Z,101140.25
2022-08-23T17:33:08.395Z,101132.56
2022-08-23T17:34:41.480Z,101136.63
2022-08-23T17:36:21.597Z,101134.94
2022-08-23T17:37:53.350Z,101134.09
2022-08-23T17:39:27.422Z,101140.38
2022-08-23T17:40:59.514Z,101140.03
2022-08-23T17:42:31.149Z,101141.03
2022-08-23T17:44:03.407Z,101146.81
2022-08-23T17:45:39.176Z,101145.66
2022-08-23T17:47:13.707Z,101148.56
2022-08-23T17:48:45.349Z,101145.34
2022-08-23T17:50:18.992Z,101147.50
2022-08-23T17:51:50.518Z,101152.63
2022-08-23T17:53:22.739Z,101143.13
2022-08-23T17:54:54.656Z,101150.75
2022-08-23T17:56:27.049Z,101154.84
2022-08-23T17:58:03.651Z,101147.72
2022-08-23T17:59:36.793Z,101161.44
2022-08-23T18:01:08.597Z,101154.69
2022-08-23T18:02:40.296Z,101154.69
2022-08-23T18:04:11.944Z,101169.94
2022-08-23T18:05:46.244Z,101159.09
2022-08-23T18:07:18.443Z,101167.06
2022-08-23T18:08:50.198Z,101173.34
2022-08-23T18:10:21.808Z,101173.13
2022-08-23T18:11:53.669Z,101171.47
2022-08-23T18:13:25.672Z,101168.75
2022-08-23T18:14:57.258Z,101169.78
2022-08-23T18:16:34.530Z,101168.94
2022-08-23T18:18:07.367Z,101173.69
2022-08-23T18:19:38.860Z,101169.28
2022-08-23T18:21:14.917Z,101168.06
2022-08-23T18:22:47.266Z,101177.75
2022-08-23T18:24:18.989Z,101183.19
2022-08-23T18:25:50.520Z,101177.59